Terminal Aerodrome Forecast
Issued by NWS Twin Cities, MN

Home | Current Version | Previous Version | Text Only | Print | Product List | Glossary On
Versions: 1 2 3 4 5 6 7 8 9 10 11 12 13 14 15 16 17 18 19 20 21 22 23 24 25 26
924
FTUS43 KMPX 310858 AAA
TAFMSP
TAF AMD
KMSP 310858Z 3109/0112 15007KT P6SM BKN100 BKN250
     FM311100 15008KT P6SM -SHRA BKN050 OVC100
     FM311300 16010KT P6SM VCSH SCT050 OVC100
     FM311700 20012KT P6SM VCSH BKN060
     FM312000 23008KT P6SM SCT200=

USA.gov is the U.S. government's official web portal to all federal, state and local government web resources and services.